^^
Saratoga-Weather Station Historical Data
Daily Summary for December 6, 2020 Units:  English    Metric   Both
Daily Weekly Monthly Yearly Custom
  High: Low: Average:
Temperature: 40.8 °F 33.3 °F 36.1 °F
Dew Point: 38.1 °F 32.2 °F 34.9 °F
Humidity: 97% 89% 95%
Wind Speed: 2.9mph 0mph 0.2mph
Wind Gust: 3mph - -
Wind- - SSE
Pressure: 29.5 in 29.5 in -
Precipitation: 0 in    
Historical Graphs
 
 
Tabular Data for December 6, 2020
Time Temperature Dew Point Pressure Wind Wind Speed Wind Gust Humidity Rainfall Rate (Hourly) solar
00:03 33.3 °F 32.2 °F 29.5 in Calm     96% 0 in 0 W/m2
00:08 33.3 °F 32.2 °F 29.5 in Calm     96% 0 in 0 W/m2
00:13 33.3 °F 32.2 °F 29.5 in Calm     96% 0 in 0 W/m2
00:18 33.3 °F 32.2 °F 29.5 in Calm     96% 0 in 0 W/m2
00:23 33.3 °F 32.2 °F 29.5 in Calm     96% 0 in 0 W/m2
00:28 33.3 °F 32.2 °F 29.5 in Calm     96% 0 in 0 W/m2
00:33 33.3 °F 32.2 °F 29.5 in Calm     96% 0 in 0 W/m2
00:38 33.4 °F 32.4 °F 29.5 in Calm     96% 0 in 0 W/m2
00:43 33.4 °F 32.4 °F 29.5 in Calm     96% 0 in 0 W/m2
00:48 33.4 °F 32.4 °F 29.5 in Calm     96% 0 in 0 W/m2
00:53 33.3 °F 32.2 °F 29.5 in Calm     96% 0 in 0 W/m2
00:58 33.4 °F 32.4 °F 29.5 in Calm     96% 0 in 0 W/m2
01:03 33.4 °F 32.4 °F 29.5 in Calm     96% 0 in 0 W/m2
01:08 33.4 °F 32.4 °F 29.5 in Calm     96% 0 in 0 W/m2
01:13 33.6 °F 32.9 °F 29.5 in Calm     97% 0 in 0 W/m2
01:18 33.8 °F 33.1 °F 29.5 in Calm     97% 0 in 0 W/m2
01:23 33.8 °F 33.1 °F 29.5 in Calm     97% 0 in 0 W/m2
01:28 33.6 °F 32.9 °F 29.5 in Calm     97% 0 in 0 W/m2
01:33 33.6 °F 32.9 °F 29.5 in Calm     97% 0 in 0 W/m2
01:38 33.6 °F 32.9 °F 29.5 in Calm     97% 0 in 0 W/m2
01:43 33.4 °F 32.7 °F 29.5 in Calm     97% 0 in 0 W/m2
01:48 33.6 °F 32.9 °F 29.5 in Calm     97% 0 in 0 W/m2
01:53 33.6 °F 32.9 °F 29.5 in Calm     97% 0 in 0 W/m2
01:58 33.8 °F 33.1 °F 29.5 in Calm     97% 0 in 0 W/m2
02:03 33.8 °F 33.1 °F 29.5 in Calm     97% 0 in 0 W/m2
02:08 34 °F 33.3 °F 29.5 in Calm     97% 0 in 0 W/m2
02:13 34 °F 33.3 °F 29.5 in Calm     97% 0 in 0 W/m2
02:18 34 °F 33.3 °F 29.5 in Calm     97% 0 in 0 W/m2
02:23 34 °F 33.3 °F 29.5 in Calm     97% 0 in 0 W/m2
02:28 34 °F 33.3 °F 29.5 in Calm     97% 0 in 0 W/m2
02:33 34 °F 33.3 °F 29.5 in Calm     97% 0 in 0 W/m2
02:38 33.8 °F 33.1 °F 29.5 in Calm     97% 0 in 0 W/m2
02:43 33.8 °F 33.1 °F 29.5 in Calm     97% 0 in 0 W/m2
02:48 33.6 °F 32.9 °F 29.5 in Calm     97% 0 in 0 W/m2
02:53 33.6 °F 32.9 °F 29.5 in Calm   1 mph 97% 0 in 0 W/m2
02:58 33.6 °F 32.9 °F 29.5 in Calm   1 mph 97% 0 in 0 W/m2
03:03 33.8 °F 33.1 °F 29.5 in East 0.9 mph 1 mph 97% 0 in 0 W/m2
03:08 33.8 °F 33.1 °F 29.5 in Calm     97% 0 in 0 W/m2
03:13 33.8 °F 33.1 °F 29.5 in Calm     97% 0 in 0 W/m2
03:18 33.8 °F 33.1 °F 29.5 in Calm     97% 0 in 0 W/m2
03:23 33.6 °F 32.9 °F 29.5 in East 0.9 mph 1 mph 97% 0 in 0 W/m2
03:28 33.6 °F 32.9 °F 29.5 in Calm     97% 0 in 0 W/m2
03:33 33.6 °F 32.9 °F 29.5 in Calm     97% 0 in 0 W/m2
03:38 33.4 °F 32.7 °F 29.5 in Calm   1 mph 97% 0 in 0 W/m2
03:43 33.4 °F 32.4 °F 29.5 in Calm     96% 0 in 0 W/m2
03:48 33.4 °F 32.7 °F 29.5 in East 0.9 mph 1 mph 97% 0 in 0 W/m2
03:53 33.4 °F 32.7 °F 29.5 in Calm     97% 0 in 0 W/m2
03:58 33.4 °F 32.7 °F 29.5 in Calm     97% 0 in 0 W/m2
04:03 33.4 °F 32.7 °F 29.5 in East 0.9 mph 2 mph 97% 0 in 0 W/m2
04:08 33.4 °F 32.7 °F 29.5 in Calm     97% 0 in 0 W/m2
04:13 33.4 °F 32.7 °F 29.5 in Calm   2 mph 97% 0 in 0 W/m2
04:18 33.4 °F 32.7 °F 29.5 in Calm     97% 0 in 0 W/m2
04:23 33.4 °F 32.7 °F 29.5 in Calm     97% 0 in 0 W/m2
04:28 33.4 °F 32.7 °F 29.5 in Calm     97% 0 in 0 W/m2
04:33 33.4 °F 32.7 °F 29.5 in Calm     97% 0 in 0 W/m2
04:38 33.4 °F 32.7 °F 29.5 in Calm     97% 0 in 0 W/m2
04:43 33.4 °F 32.7 °F 29.5 in Calm     97% 0 in 0 W/m2
04:48 33.4 °F 32.7 °F 29.5 in Calm     97% 0 in 0 W/m2
04:53 33.4 °F 32.7 °F 29.5 in Calm     97% 0 in 0 W/m2
04:58 33.4 °F 32.7 °F 29.5 in Calm     97% 0 in 0 W/m2
05:03 33.4 °F 32.7 °F 29.5 in Calm     97% 0 in 0 W/m2
05:08 33.6 °F 32.9 °F 29.5 in Calm     97% 0 in 0 W/m2
05:13 33.8 °F 33.1 °F 29.5 in Calm     97% 0 in 0 W/m2
05:18 34 °F 33.3 °F 29.5 in Calm     97% 0 in 0 W/m2
05:23 34 °F 33.3 °F 29.5 in Calm     97% 0 in 0 W/m2
05:28 34.2 °F 33.4 °F 29.5 in Calm     97% 0 in 0 W/m2
05:33 34.2 °F 33.4 °F 29.5 in Calm   2 mph 97% 0 in 0 W/m2
05:38 34.2 °F 33.4 °F 29.5 in Calm     97% 0 in 0 W/m2
05:43 34.2 °F 33.4 °F 29.5 in Calm   2 mph 97% 0 in 0 W/m2
05:48 34.2 °F 33.4 °F 29.5 in Calm     97% 0 in 0 W/m2
05:53 34.2 °F 33.4 °F 29.5 in Calm     97% 0 in 0 W/m2
05:58 34.2 °F 33.4 °F 29.5 in Calm     97% 0 in 0 W/m2
06:03 34.2 °F 33.4 °F 29.5 in Calm     97% 0 in 0 W/m2
06:08 34.2 °F 33.4 °F 29.5 in Calm     97% 0 in 0 W/m2
06:13 34.2 °F 33.4 °F 29.5 in Calm     97% 0 in 0 W/m2
06:18 34.3 °F 33.6 °F 29.5 in Calm     97% 0 in 0 W/m2
06:23 34.3 °F 33.6 °F 29.5 in Calm     97% 0 in 0 W/m2
06:28 34.3 °F 33.6 °F 29.5 in Calm     97% 0 in 0 W/m2
06:33 34.3 °F 33.6 °F 29.5 in Calm     97% 0 in 0 W/m2
06:38 34.3 °F 33.6 °F 29.5 in Calm     97% 0 in 0 W/m2
06:43 34.3 °F 33.6 °F 29.5 in Calm     97% 0 in 0 W/m2
06:48 34.5 °F 33.8 °F 29.5 in Calm     97% 0 in 0 W/m2
06:53 34.5 °F 33.8 °F 29.5 in Calm     97% 0 in 0 W/m2
06:58 34.5 °F 33.8 °F 29.5 in Calm     97% 0 in 0 W/m2
07:03 34.5 °F 33.8 °F 29.5 in Calm     97% 0 in 0 W/m2
07:08 34.5 °F 33.8 °F 29.5 in Calm     97% 0 in 0 W/m2
07:14 34.7 °F 34 °F 29.5 in Calm     97% 0 in 0 W/m2
07:19 34.7 °F 34 °F 29.5 in Calm     97% 0 in 0 W/m2
07:24 34.9 °F 34.2 °F 29.5 in Calm     97% 0 in 0 W/m2
07:29 34.9 °F 34.2 °F 29.5 in Calm     97% 0 in 0 W/m2
07:34 34.9 °F 34.2 °F 29.5 in Calm     97% 0 in 0 W/m2
07:39 34.9 °F 34.2 °F 29.5 in Calm     97% 0 in 0 W/m2
07:44 34.9 °F 34.2 °F 29.5 in Calm     97% 0 in 0 W/m2
07:49 34.9 °F 34.2 °F 29.5 in Calm     97% 0 in 0 W/m2
07:54 34.9 °F 34.2 °F 29.5 in Calm     97% 0 in 0 W/m2
07:59 34.9 °F 34.2 °F 29.5 in Calm     97% 0 in 0 W/m2
08:04 34.9 °F 34.2 °F 29.5 in Calm     97% 0 in 0 W/m2
08:09 34.9 °F 34.2 °F 29.5 in Calm   2 mph 97% 0 in 0 W/m2
08:14 34.9 °F 34.2 °F 29.5 in Calm   1 mph 97% 0 in 0 W/m2
08:19 34.9 °F 34.2 °F 29.5 in Calm   1 mph 97% 0 in 0 W/m2
08:24 34.9 °F 34.2 °F 29.5 in East 0.9 mph 2 mph 97% 0 in 0 W/m2
08:29 34.9 °F 34.2 °F 29.5 in Calm   3 mph 97% 0 in 0 W/m2
08:34 34.9 °F 34.2 °F 29.5 in Calm     97% 0 in 0 W/m2
08:39 34.9 °F 34.2 °F 29.5 in Calm   2 mph 97% 0 in 5 W/m2
08:44 34.9 °F 34.2 °F 29.5 in East 0.9 mph 1 mph 97% 0 in 5 W/m2
08:49 34.9 °F 34.2 °F 29.5 in Calm   1 mph 97% 0 in 7 W/m2
08:54 34.9 °F 34.2 °F 29.5 in Calm     97% 0 in 9 W/m2
08:59 34.9 °F 34.2 °F 29.5 in East 2 mph 2 mph 97% 0 in 11 W/m2
09:04 34.9 °F 34.2 °F 29.5 in Calm     97% 0 in 11 W/m2
09:09 35.1 °F 34.3 °F 29.5 in Calm     97% 0 in 12 W/m2
09:14 35.1 °F 34.3 °F 29.5 in Calm     97% 0 in 14 W/m2
09:19 35.1 °F 34.3 °F 29.5 in Calm     97% 0 in 14 W/m2
09:24 35.1 °F 34.3 °F 29.5 in Calm     97% 0 in 16 W/m2
09:29 35.2 °F 34.5 °F 29.5 in Calm     97% 0 in 18 W/m2
09:34 35.2 °F 34.5 °F 29.5 in Calm     97% 0 in 19 W/m2
09:39 35.2 °F 34.5 °F 29.5 in Calm     97% 0 in 19 W/m2
09:44 35.2 °F 34.5 °F 29.5 in Calm     97% 0 in 25 W/m2
09:53 35.4 °F 34.7 °F 29.5 in Calm     97% 0 in 23 W/m2
09:58 35.4 °F 34.7 °F 29.5 in Calm     97% 0 in 25 W/m2
10:03 35.4 °F 34.7 °F 29.5 in Calm     97% 0 in 25 W/m2
10:08 35.6 °F 34.9 °F 29.5 in Calm     97% 0 in 25 W/m2
10:13 35.8 °F 35.1 °F 29.5 in Calm     97% 0 in 28 W/m2
10:18 35.8 °F 35.1 °F 29.5 in Calm     97% 0 in 28 W/m2
10:23 36 °F 35.2 °F 29.5 in Calm     97% 0 in 23 W/m2
10:28 36 °F 35.2 °F 29.5 in Calm     97% 0 in 26 W/m2
10:33 36 °F 35.2 °F 29.5 in Calm     97% 0 in 26 W/m2
10:38 36 °F 35.2 °F 29.5 in Calm     97% 0 in 30 W/m2
10:43 36 °F 35.2 °F 29.5 in Calm     97% 0 in 33 W/m2
10:48 36.1 °F 35.4 °F 29.5 in Calm     97% 0 in 33 W/m2
10:53 36.1 °F 35.4 °F 29.5 in Calm     97% 0 in 40 W/m2
10:58 36.1 °F 35.4 °F 29.5 in Calm     97% 0 in 40 W/m2
11:03 36.3 °F 35.6 °F 29.5 in Calm     97% 0 in 42 W/m2
11:08 36.3 °F 35.6 °F 29.5 in Calm     97% 0 in 46 W/m2
11:13 36.5 °F 35.8 °F 29.5 in East 0.9 mph 3 mph 97% 0 in 47 W/m2
11:19 36.5 °F 35.8 °F 29.5 in Calm   2 mph 97% 0 in 44 W/m2
11:24 36.7 °F 36 °F 29.5 in Calm   2 mph 97% 0 in 46 W/m2
11:29 36.7 °F 36 °F 29.5 in ESE 0.9 mph 3 mph 97% 0 in 49 W/m2
11:34 36.9 °F 36.1 °F 29.5 in Calm   1 mph 97% 0 in 58 W/m2
11:39 37 °F 36.3 °F 29.5 in Calm   1 mph 97% 0 in 54 W/m2
11:44 37 °F 36 °F 29.5 in Calm   1 mph 96% 0 in 56 W/m2
11:49 37.2 °F 36.5 °F 29.5 in Calm     97% 0 in 58 W/m2
11:54 37.2 °F 36.1 °F 29.5 in Calm   1 mph 96% 0 in 77 W/m2
11:59 37.2 °F 36.1 °F 29.5 in ESE 0.9 mph 2 mph 96% 0 in 97 W/m2
12:04 37.4 °F 36.3 °F 29.5 in Calm   3 mph 96% 0 in 118 W/m2
12:09 37.4 °F 36.3 °F 29.5 in West 0.9 mph 2 mph 96% 0 in 118 W/m2
12:14 37.6 °F 36.5 °F 29.5 in WNW 2 mph 2 mph 96% 0 in 144 W/m2
12:19 37.9 °F 36.9 °F 29.5 in WNW 2 mph 3 mph 96% 0 in 142 W/m2
12:24 37.9 °F 36.7 °F 29.5 in West 0.9 mph 2 mph 95% 0 in 146 W/m2
12:29 38.3 °F 37 °F 29.5 in West 0.9 mph 1 mph 95% 0 in 139 W/m2
12:34 38.5 °F 37.2 °F 29.5 in West 0.9 mph 2 mph 95% 0 in 134 W/m2
12:39 38.8 °F 37.6 °F 29.5 in Calm     95% 0 in 132 W/m2
12:44 39 °F 37.8 °F 29.5 in West 0.9 mph 3 mph 95% 0 in 111 W/m2
12:49 39.2 °F 37.6 °F 29.5 in Calm   2 mph 94% 0 in 93 W/m2
12:54 39.4 °F 37.8 °F 29.5 in West 0.9 mph 3 mph 94% 0 in 69 W/m2
12:59 39.4 °F 37.6 °F 29.5 in Calm     93% 0 in 65 W/m2
13:04 39.6 °F 37.8 °F 29.5 in West 0.9 mph 1 mph 93% 0 in 74 W/m2
13:09 39.6 °F 37.8 °F 29.5 in Calm     93% 0 in 90 W/m2
13:14 39.6 °F 37.8 °F 29.5 in Calm   1 mph 93% 0 in 100 W/m2
13:19 39.7 °F 37.9 °F 29.5 in East 2 mph 3 mph 93% 0 in 97 W/m2
13:24 39.9 °F 37.8 °F 29.5 in ESE 0.9 mph 2 mph 92% 0 in 102 W/m2
13:29 40.1 °F 37.9 °F 29.5 in ESE 2 mph 3 mph 92% 0 in 98 W/m2
13:34 40.3 °F 37.9 °F 29.5 in Calm   1 mph 91% 0 in 109 W/m2
13:39 40.3 °F 37.9 °F 29.5 in Calm   2 mph 91% 0 in 113 W/m2
13:44 40.5 °F 38.1 °F 29.5 in NE 0.9 mph 2 mph 91% 0 in 114 W/m2
13:49 40.3 °F 37.6 °F 29.5 in NNE 2 mph 2 mph 90% 0 in 114 W/m2
13:54 40.5 °F 37.8 °F 29.5 in East 0.9 mph 1 mph 90% 0 in 113 W/m2
13:59 40.5 °F 37.8 °F 29.5 in ESE 0.9 mph 2 mph 90% 0 in 107 W/m2
14:04 40.5 °F 37.8 °F 29.5 in SE 2 mph 2 mph 90% 0 in 107 W/m2
14:09 40.5 °F 37.8 °F 29.5 in Calm     90% 0 in 111 W/m2
14:14 40.5 °F 37.8 °F 29.5 in Calm     90% 0 in 118 W/m2
14:19 40.5 °F 37.8 °F 29.5 in Calm     90% 0 in 114 W/m2
14:24 40.6 °F 37.9 °F 29.5 in Calm   1 mph 90% 0 in 104 W/m2
14:29 40.6 °F 37.9 °F 29.5 in East 0.9 mph 1 mph 90% 0 in 107 W/m2
14:34 40.6 °F 37.9 °F 29.5 in East 0.9 mph 1 mph 90% 0 in 104 W/m2
14:39 40.8 °F 38.1 °F 29.5 in East 2 mph 2 mph 90% 0 in 93 W/m2
14:44 40.8 °F 38.1 °F 29.5 in East 2 mph 2 mph 90% 0 in 84 W/m2
14:49 40.8 °F 38.1 °F 29.5 in East 2 mph 2 mph 90% 0 in 84 W/m2
14:54 40.8 °F 38.1 °F 29.5 in East 0.9 mph 2 mph 90% 0 in 90 W/m2
14:59 40.8 °F 38.1 °F 29.5 in East 2 mph 2 mph 90% 0 in 95 W/m2
15:04 40.8 °F 38.1 °F 29.5 in Calm   1 mph 90% 0 in 90 W/m2
15:09 40.8 °F 37.8 °F 29.5 in East 2 mph 2 mph 89% 0 in 95 W/m2
15:14 40.8 °F 38.1 °F 29.5 in Calm     90% 0 in 83 W/m2
15:19 40.8 °F 37.8 °F 29.5 in Calm   2 mph 89% 0 in 77 W/m2
15:24 40.6 °F 37.6 °F 29.5 in Calm   1 mph 89% 0 in 65 W/m2
15:29 40.6 °F 37.6 °F 29.5 in Calm     89% 0 in 56 W/m2
15:34 40.6 °F 37.6 °F 29.5 in East 0.9 mph 2 mph 89% 0 in 54 W/m2
15:39 40.5 °F 37.8 °F 29.5 in Calm     90% 0 in 47 W/m2
15:44 40.5 °F 37.8 °F 29.5 in SE 0.9 mph 2 mph 90% 0 in 40 W/m2
15:49 40.3 °F 37.6 °F 29.5 in Calm   1 mph 90% 0 in 39 W/m2
15:54 40.1 °F 37.8 °F 29.5 in Calm     91% 0 in 40 W/m2
15:59 39.9 °F 37.6 °F 29.5 in Calm   1 mph 91% 0 in 44 W/m2
16:04 39.7 °F 37.4 °F 29.5 in Calm     91% 0 in 30 W/m2
16:09 39.7 °F 37.4 °F 29.5 in Calm     91% 0 in 25 W/m2
16:14 39.7 °F 37.4 °F 29.5 in ESE 0.9 mph 2 mph 91% 0 in 23 W/m2
16:20 39.6 °F 37.2 °F 29.5 in Calm     91% 0 in 18 W/m2
16:25 39.4 °F 37.2 °F 29.5 in Calm     92% 0 in 14 W/m2
16:30 39.4 °F 37.2 °F 29.5 in Calm     92% 0 in 9 W/m2
16:35 39 °F 36.9 °F 29.5 in SW 0.9 mph 2 mph 92% 0 in 9 W/m2
16:40 39 °F 36.9 °F 29.5 in Calm     92% 0 in 9 W/m2
16:45 38.8 °F 36.7 °F 29.5 in Calm     92% 0 in 7 W/m2
16:50 38.7 °F 36.5 °F 29.5 in SW 0.9 mph 1 mph 92% 0 in 0 W/m2
16:55 38.5 °F 36.3 °F 29.5 in Calm     92% 0 in 0 W/m2
17:00 38.5 °F 36.3 °F 29.5 in Calm     92% 0 in 0 W/m2
17:05 38.1 °F 36.3 °F 29.5 in Calm   1 mph 93% 0 in 0 W/m2
17:10 37.9 °F 36.1 °F 29.5 in Calm     93% 0 in 0 W/m2
17:15 37.9 °F 36.1 °F 29.5 in Calm     93% 0 in 0 W/m2
17:20 37.8 °F 36 °F 29.5 in Calm   1 mph 93% 0 in 0 W/m2
17:25 37.6 °F 35.8 °F 29.5 in Calm     93% 0 in 0 W/m2
17:30 37.4 °F 35.6 °F 29.5 in Calm     93% 0 in 0 W/m2
17:35 37.2 °F 35.4 °F 29.5 in Calm     93% 0 in 0 W/m2
17:40 37 °F 35.2 °F 29.5 in Calm     93% 0 in 0 W/m2
17:45 36.9 °F 35.1 °F 29.5 in Calm     93% 0 in 0 W/m2
17:50 36.9 °F 35.2 °F 29.5 in Calm     94% 0 in 0 W/m2
17:55 36.7 °F 35.1 °F 29.5 in Calm     94% 0 in 0 W/m2
18:00 36.5 °F 34.9 °F 29.5 in Calm     94% 0 in 0 W/m2
18:05 36.3 °F 34.7 °F 29.5 in Calm     94% 0 in 0 W/m2
18:10 36.3 °F 34.7 °F 29.5 in Calm     94% 0 in 0 W/m2
18:15 36.3 °F 34.7 °F 29.5 in Calm   1 mph 94% 0 in 0 W/m2
18:20 36.1 °F 34.5 °F 29.5 in Calm     94% 0 in 0 W/m2
18:25 36.1 °F 34.5 °F 29.5 in Calm     94% 0 in 0 W/m2
18:30 36 °F 34.3 °F 29.5 in SW 0.9 mph 1 mph 94% 0 in 0 W/m2
18:35 36 °F 34.3 °F 29.5 in Calm     94% 0 in 0 W/m2
18:40 35.8 °F 34.2 °F 29.5 in Calm     94% 0 in 0 W/m2
18:45 35.8 °F 34.2 °F 29.5 in Calm     94% 0 in 0 W/m2
18:50 35.6 °F 34 °F 29.5 in Calm     94% 0 in 0 W/m2
18:55 35.4 °F 33.8 °F 29.5 in Calm     94% 0 in 0 W/m2
19:00 35.4 °F 34.2 °F 29.5 in Calm     95% 0 in 0 W/m2
19:05 35.4 °F 34.2 °F 29.5 in Calm     95% 0 in 0 W/m2
19:10 35.4 °F 34.2 °F 29.5 in SW 0.9 mph 2 mph 95% 0 in 0 W/m2
19:15 35.4 °F 34.2 °F 29.5 in Calm   1 mph 95% 0 in 0 W/m2
19:20 35.8 °F 34.5 °F 29.5 in SW 0.9 mph 2 mph 95% 0 in 0 W/m2
19:25 35.8 °F 34.5 °F 29.5 in Calm     95% 0 in 0 W/m2
19:30 36 °F 34.7 °F 29.5 in West 2 mph 3 mph 95% 0 in 0 W/m2
19:35 36 °F 34.7 °F 29.5 in WNW 2 mph 2 mph 95% 0 in 0 W/m2
19:40 36.1 °F 34.9 °F 29.5 in WNW 2.9 mph 3 mph 95% 0 in 0 W/m2
19:45 36.3 °F 35.1 °F 29.5 in NW 2 mph 3 mph 95% 0 in 0 W/m2
Juneau County Weather
Compliments of Weather Underground - 2 mb